Time;durP1;ratioP1;P1;durP2;ratioP2;P2;SDS_P1;SDS_P2;PMS_P1;PMS_P2;Temp;Humidity;BMP_temperature;BMP_pressure;BME280_temperature;BME280_humidity;BME280_pressure;Samples;Min_cycle;Max_cycle;Signal;HPM_P1;HPM_P2
2021/10/20 00:00:20;;;;;;;;;;;22.50;44.30;;;;;;484471;246;1197;-72
2021/10/20 00:02:21;;;;;;;;;;;22.50;44.30;;;;;;484568;242;1200;-72
2021/10/20 00:04:22;;;;;;;;;;;22.40;44.30;;;;;;484628;246;2179;-72
2021/10/20 00:06:24;;;;;;;;;;;22.50;44.30;;;;;;484599;246;1233;-73
2021/10/20 00:08:25;;;;;;;;;;;22.50;44.30;;;;;;484688;246;1205;-73
2021/10/20 00:10:26;;;;;;;;;;;22.40;44.40;;;;;;484624;246;979;-73
2021/10/20 00:12:28;;;;;;;;;;;22.50;44.10;;;;;;484561;246;1071;-73
2021/10/20 00:14:29;;;;;;;;;;;22.40;44.20;;;;;;484655;246;952;-73
2021/10/20 00:16:30;;;;;;;;;;;22.50;44.20;;;;;;484534;246;1237;-73
2021/10/20 00:18:32;;;;;;;;;;;22.50;44.00;;;;;;484648;246;959;-73
2021/10/20 00:20:33;;;;;;;;;;;22.70;43.70;;;;;;484629;246;1180;-73
2021/10/20 00:22:34;;;;;;;;;;;22.70;43.80;;;;;;484618;246;1132;-73
2021/10/20 00:24:35;;;;;;;;;;;22.70;43.60;;;;;;484604;246;2129;-73
2021/10/20 00:26:37;;;;;;;;;;;22.70;43.70;;;;;;484558;246;1140;-73
2021/10/20 00:28:38;;;;;;;;;;;22.60;43.90;;;;;;484598;246;1119;-73
2021/10/20 00:30:39;;;;;;;;;;;22.70;43.70;;;;;;484623;246;1072;-73
2021/10/20 00:32:41;;;;;;;;;;;22.70;43.50;;;;;;484589;246;1244;-72
2021/10/20 00:34:42;;;;;;;;;;;22.70;43.50;;;;;;484642;246;963;-72
2021/10/20 00:36:43;;;;;;;;;;;22.70;43.50;;;;;;484580;246;1116;-72
2021/10/20 00:38:45;;;;;;;;;;;22.60;43.60;;;;;;484633;246;1160;-72
2021/10/20 00:40:46;;;;;;;;;;;22.60;43.60;;;;;;484549;246;988;-72
2021/10/20 00:42:47;;;;;;;;;;;22.50;44.00;;;;;;484569;241;1091;-73
2021/10/20 00:44:50;;;;;;;;;;;22.80;43.30;;;;;;484533;246;2171;-73
2021/10/20 00:46:52;;;;;;;;;;;22.80;43.30;;;;;;484428;246;1196;-73
2021/10/20 00:48:53;;;;;;;;;;;22.80;43.30;;;;;;484642;246;991;-73
2021/10/20 00:50:54;;;;;;;;;;;22.80;43.00;;;;;;484670;246;1077;-73
2021/10/20 00:52:56;;;;;;;;;;;22.80;43.10;;;;;;484599;246;1192;-73
2021/10/20 00:54:57;;;;;;;;;;;22.60;43.40;;;;;;484610;246;997;-73
2021/10/20 00:56:58;;;;;;;;;;;22.70;43.40;;;;;;484602;246;1164;-73
2021/10/20 00:58:59;;;;;;;;;;;22.70;43.30;;;;;;484628;246;1040;-73
2021/10/20 01:01:01;;;;;;;;;;;22.60;43.40;;;;;;484562;246;1196;-73
2021/10/20 01:03:02;;;;;;;;;;;22.60;43.30;;;;;;484399;246;1195;-73
2021/10/20 01:05:03;;;;;;;;;;;22.80;43.00;;;;;;484579;246;2180;-73
2021/10/20 01:07:05;;;;;;;;;;;22.70;43.00;;;;;;484486;246;1301;-73
2021/10/20 01:09:06;;;;;;;;;;;22.70;43.00;;;;;;484638;246;1171;-72
2021/10/20 01:11:07;;;;;;;;;;;22.60;43.10;;;;;;484532;246;1228;-72
2021/10/20 01:13:09;;;;;;;;;;;22.60;43.20;;;;;;484564;246;1071;-73
2021/10/20 01:15:10;;;;;;;;;;;22.70;42.90;;;;;;484600;246;990;-73
2021/10/20 01:17:11;;;;;;;;;;;22.60;43.00;;;;;;484556;246;1093;-72
2021/10/20 01:19:13;;;;;;;;;;;22.70;42.80;;;;;;484623;246;963;-72
2021/10/20 01:21:14;;;;;;;;;;;22.50;43.10;;;;;;484657;246;981;-72
2021/10/20 01:23:15;;;;;;;;;;;22.50;43.10;;;;;;484649;246;1146;-72
2021/10/20 01:25:17;;;;;;;;;;;22.50;43.30;;;;;;484541;246;2183;-72
2021/10/20 01:27:18;;;;;;;;;;;22.60;43.00;;;;;;484527;246;1139;-72
2021/10/20 01:29:19;;;;;;;;;;;22.70;42.90;;;;;;484599;246;948;-72
2021/10/20 01:31:21;;;;;;;;;;;22.70;42.80;;;;;;484517;246;979;-72
2021/10/20 01:33:22;;;;;;;;;;;22.70;42.70;;;;;;484550;246;1107;-72
2021/10/20 01:35:23;;;;;;;;;;;22.70;42.50;;;;;;484518;246;1087;-72
2021/10/20 01:37:25;;;;;;;;;;;22.70;42.50;;;;;;484527;246;1283;-72
2021/10/20 01:39:26;;;;;;;;;;;22.60;42.70;;;;;;484631;246;1150;-73
2021/10/20 01:41:29;;;;;;;;;;;22.50;42.70;;;;;;484559;246;1191;-73
2021/10/20 01:43:29;;;;;;;;;;;22.40;43.10;;;;;;484593;246;1517;-73
2021/10/20 01:45:30;;;;;;;;;;;22.50;42.70;;;;;;484523;246;2179;-73
2021/10/20 01:47:31;;;;;;;;;;;22.60;42.70;;;;;;484570;246;1337;-73
2021/10/20 01:49:33;;;;;;;;;;;22.70;42.40;;;;;;484735;246;954;-73
2021/10/20 01:51:34;;;;;;;;;;;22.80;42.30;;;;;;484656;246;1195;-73
2021/10/20 01:53:35;;;;;;;;;;;22.80;42.20;;;;;;484648;246;1145;-73
2021/10/20 01:55:36;;;;;;;;;;;22.90;42.20;;;;;;484620;246;990;-73
2021/10/20 01:57:38;;;;;;;;;;;23.00;41.90;;;;;;484581;246;1222;-73
2021/10/20 01:59:39;;;;;;;;;;;23.10;41.60;;;;;;484677;246;968;-73
2021/10/20 02:01:40;;;;;;;;;;;23.10;41.50;;;;;;484630;246;1227;-73
2021/10/20 02:03:42;;;;;;;;;;;23.20;41.30;;;;;;484520;246;972;-73
2021/10/20 02:05:43;;;;;;;;;;;23.20;41.20;;;;;;484627;246;2194;-73
2021/10/20 02:07:44;;;;;;;;;;;23.20;41.40;;;;;;484593;246;1199;-73
2021/10/20 02:09:46;;;;;;;;;;;23.20;41.30;;;;;;484687;246;1035;-73
2021/10/20 02:11:47;;;;;;;;;;;23.00;41.50;;;;;;484617;246;1254;-73
2021/10/20 02:13:48;;;;;;;;;;;23.10;41.30;;;;;;484694;246;1070;-73
2021/10/20 02:15:50;;;;;;;;;;;23.20;41.00;;;;;;484634;246;1236;-73
2021/10/20 02:17:51;;;;;;;;;;;23.20;41.30;;;;;;484543;246;1167;-73
2021/10/20 02:19:52;;;;;;;;;;;23.20;41.20;;;;;;484675;246;930;-73
2021/10/20 02:21:54;;;;;;;;;;;23.20;41.10;;;;;;484648;246;1157;-73
2021/10/20 02:23:55;;;;;;;;;;;23.20;41.10;;;;;;484573;246;1235;-73
2021/10/20 02:25:56;;;;;;;;;;;23.10;41.10;;;;;;484584;246;2195;-72
2021/10/20 02:27:58;;;;;;;;;;;23.20;41.00;;;;;;484587;246;1060;-73
2021/10/20 02:29:59;;;;;;;;;;;23.20;41.10;;;;;;484651;246;1013;-73
2021/10/20 02:32:00;;;;;;;;;;;23.20;40.90;;;;;;484490;246;1138;-73
2021/10/20 02:34:02;;;;;;;;;;;23.30;40.80;;;;;;484521;246;1010;-73
2021/10/20 02:36:03;;;;;;;;;;;23.20;40.80;;;;;;484704;246;1222;-73
2021/10/20 02:38:04;;;;;;;;;;;23.20;40.80;;;;;;484608;246;1154;-72
2021/10/20 02:40:06;;;;;;;;;;;23.20;40.80;;;;;;484723;246;1127;-72
2021/10/20 02:42:08;;;;;;;;;;;23.10;40.90;;;;;;484609;246;1220;-72
2021/10/20 02:44:08;;;;;;;;;;;23.20;40.90;;;;;;484639;246;1263;-72
2021/10/20 02:46:10;;;;;;;;;;;23.20;40.80;;;;;;484619;246;2128;-72
2021/10/20 02:48:11;;;;;;;;;;;23.20;40.80;;;;;;484586;246;960;-72
2021/10/20 02:50:12;;;;;;;;;;;23.10;40.70;;;;;;484569;246;1155;-72
2021/10/20 02:52:13;;;;;;;;;;;23.20;40.80;;;;;;484475;246;1179;-72
2021/10/20 02:54:15;;;;;;;;;;;23.10;40.70;;;;;;484623;246;1227;-72
2021/10/20 02:56:17;;;;;;;;;;;23.20;40.70;;;;;;484612;246;1242;-72
2021/10/20 02:58:17;;;;;;;;;;;23.20;40.80;;;;;;484556;246;1342;-73
2021/10/20 03:00:19;;;;;;;;;;;23.20;40.60;;;;;;484640;246;1200;-73
2021/10/20 03:02:20;;;;;;;;;;;23.30;40.50;;;;;;484607;246;1168;-73
2021/10/20 03:04:21;;;;;;;;;;;23.20;40.60;;;;;;484609;246;960;-73
2021/10/20 03:06:23;;;;;;;;;;;23.30;40.50;;;;;;484459;246;2196;-72
2021/10/20 03:08:24;;;;;;;;;;;23.30;40.50;;;;;;484612;246;1172;-72
2021/10/20 03:10:25;;;;;;;;;;;23.20;40.60;;;;;;484626;246;1208;-72
2021/10/20 03:12:27;;;;;;;;;;;23.40;40.40;;;;;;484588;246;1062;-72
2021/10/20 03:14:28;;;;;;;;;;;23.40;40.20;;;;;;484704;246;938;-72
2021/10/20 03:16:29;;;;;;;;;;;23.40;40.10;;;;;;484616;246;1227;-72
2021/10/20 03:18:31;;;;;;;;;;;23.40;40.10;;;;;;484571;246;1138;-72
2021/10/20 03:20:32;;;;;;;;;;;23.50;39.90;;;;;;484578;246;1154;-73
2021/10/20 03:22:34;;;;;;;;;;;23.40;40.00;;;;;;484567;246;1058;-72
2021/10/20 03:24:35;;;;;;;;;;;23.40;40.00;;;;;;484588;246;1406;-72
2021/10/20 03:26:36;;;;;;;;;;;23.30;40.10;;;;;;484614;246;2183;-73
2021/10/20 03:28:37;;;;;;;;;;;23.40;40.00;;;;;;484634;246;1111;-73
2021/10/20 03:30:39;;;;;;;;;;;23.40;40.00;;;;;;484634;242;1481;-73
2021/10/20 03:32:40;;;;;;;;;;;23.40;39.80;;;;;;484623;246;1168;-72
2021/10/20 03:34:41;;;;;;;;;;;23.40;39.80;;;;;;484644;246;1074;-73
2021/10/20 03:36:43;;;;;;;;;;;23.50;39.70;;;;;;484607;245;1187;-73
2021/10/20 03:38:44;;;;;;;;;;;23.60;39.50;;;;;;484592;246;1390;-73
2021/10/20 03:40:45;;;;;;;;;;;23.60;39.40;;;;;;484619;246;1210;-73
2021/10/20 03:42:47;;;;;;;;;;;23.60;39.30;;;;;;484604;246;1138;-73
2021/10/20 03:44:49;;;;;;;;;;;23.50;39.50;;;;;;484666;246;1017;-73
2021/10/20 03:46:49;;;;;;;;;;;23.60;39.50;;;;;;484515;246;2183;-73
2021/10/20 03:48:51;;;;;;;;;;;23.50;39.40;;;;;;484634;246;952;-73
2021/10/20 03:50:52;;;;;;;;;;;23.50;39.50;;;;;;484599;246;1237;-73
2021/10/20 03:52:53;;;;;;;;;;;23.30;39.60;;;;;;484633;246;944;-73
2021/10/20 03:54:54;;;;;;;;;;;23.60;39.40;;;;;;484574;246;1176;-73
2021/10/20 03:56:56;;;;;;;;;;;23.50;39.20;;;;;;484395;246;1124;-73
2021/10/20 03:58:57;;;;;;;;;;;23.60;39.20;;;;;;484487;246;1063;-73
2021/10/20 04:00:58;;;;;;;;;;;23.60;39.10;;;;;;484475;246;1200;-73
2021/10/20 04:03:00;;;;;;;;;;;23.50;39.10;;;;;;484488;246;1073;-73
2021/10/20 04:05:01;;;;;;;;;;;23.50;39.20;;;;;;484528;246;1133;-73
2021/10/20 04:07:02;;;;;;;;;;;23.70;39.00;;;;;;484476;246;2195;-73
2021/10/20 04:09:05;;;;;;;;;;;23.70;38.80;;;;;;484571;246;1116;-73
2021/10/20 04:11:05;;;;;;;;;;;23.50;38.90;;;;;;484492;243;1382;-73
2021/10/20 04:13:07;;;;;;;;;;;23.50;38.90;;;;;;484624;246;976;-73
2021/10/20 04:15:08;;;;;;;;;;;23.60;38.80;;;;;;484556;246;964;-73
2021/10/20 04:17:09;;;;;;;;;;;23.50;38.90;;;;;;484462;246;1167;-73
2021/10/20 04:19:11;;;;;;;;;;;23.60;38.80;;;;;;484519;246;997;-73
2021/10/20 04:21:12;;;;;;;;;;;23.50;38.80;;;;;;484375;246;1204;-73
2021/10/20 04:23:13;;;;;;;;;;;23.60;38.70;;;;;;484469;246;999;-73
2021/10/20 04:25:15;;;;;;;;;;;23.60;38.70;;;;;;484607;246;1153;-73
2021/10/20 04:27:16;;;;;;;;;;;23.70;38.50;;;;;;484460;246;2183;-73
2021/10/20 04:29:17;;;;;;;;;;;23.60;38.40;;;;;;484427;246;994;-73
2021/10/20 04:31:18;;;;;;;;;;;23.60;38.40;;;;;;484328;243;1224;-73
2021/10/20 04:33:20;;;;;;;;;;;23.70;38.40;;;;;;484320;246;960;-73
2021/10/20 04:35:24;;;;;;;;;;;23.60;38.30;;;;;;484335;246;958;-73
2021/10/20 04:37:25;;;;;;;;;;;23.70;38.30;;;;;;484248;246;1554;-73
2021/10/20 04:39:26;;;;;;;;;;;23.60;38.30;;;;;;484373;246;1194;-73
2021/10/20 04:41:27;;;;;;;;;;;23.60;38.30;;;;;;484277;246;1240;-73
2021/10/20 04:43:29;;;;;;;;;;;23.60;38.30;;;;;;484348;246;1184;-73
2021/10/20 04:45:30;;;;;;;;;;;23.60;38.10;;;;;;484431;246;1282;-73
2021/10/20 04:47:32;;;;;;;;;;;23.70;38.20;;;;;;484401;246;1186;-73
2021/10/20 04:49:33;;;;;;;;;;;23.60;38.20;;;;;;484412;246;1310;-73
2021/10/20 04:51:34;;;;;;;;;;;23.70;38.10;;;;;;484366;246;1113;-73
2021/10/20 04:53:38;;;;;;;;;;;23.60;38.10;;;;;;484423;246;1034;-73
2021/10/20 04:55:37;;;;;;;;;;;23.70;38.10;;;;;;484216;246;1487;-73
2021/10/20 04:57:38;;;;;;;;;;;23.60;38.20;;;;;;484350;246;981;-73
2021/10/20 04:59:40;;;;;;;;;;;23.50;38.20;;;;;;484294;246;1069;-73
2021/10/20 05:01:41;;;;;;;;;;;23.60;38.10;;;;;;484219;246;1091;-73
2021/10/20 05:03:42;;;;;;;;;;;23.50;38.30;;;;;;484428;246;968;-73
2021/10/20 05:05:44;;;;;;;;;;;23.50;38.20;;;;;;484372;246;2123;-73
2021/10/20 05:07:45;;;;;;;;;;;23.60;38.10;;;;;;484341;246;1281;-73
2021/10/20 05:09:49;;;;;;;;;;;23.70;38.00;;;;;;484282;246;1327;-72
2021/10/20 05:11:47;;;;;;;;;;;23.70;37.90;;;;;;484036;246;1446;-72
2021/10/20 05:13:49;;;;;;;;;;;23.70;37.90;;;;;;484280;246;966;-72
2021/10/20 05:15:50;;;;;;;;;;;23.60;38.20;;;;;;484159;246;1118;-72
2021/10/20 05:17:51;;;;;;;;;;;23.60;38.10;;;;;;484168;246;1058;-72
2021/10/20 05:19:53;;;;;;;;;;;23.60;38.10;;;;;;484226;246;1123;-72
2021/10/20 05:21:54;;;;;;;;;;;23.60;38.10;;;;;;484282;246;1211;-72
2021/10/20 05:23:55;;;;;;;;;;;23.60;38.20;;;;;;484206;246;1066;-72
2021/10/20 05:25:57;;;;;;;;;;;23.70;38.10;;;;;;484246;246;2199;-73
2021/10/20 05:27:58;;;;;;;;;;;23.50;38.20;;;;;;484260;246;1073;-73
2021/10/20 05:30:00;;;;;;;;;;;23.60;38.10;;;;;;484256;246;1088;-73
2021/10/20 05:32:01;;;;;;;;;;;23.50;38.20;;;;;;484155;246;1181;-72
2021/10/20 05:34:03;;;;;;;;;;;23.50;38.30;;;;;;484117;246;1036;-72
2021/10/20 05:36:04;;;;;;;;;;;23.60;38.30;;;;;;484143;246;1105;-72
2021/10/20 05:38:05;;;;;;;;;;;23.50;38.40;;;;;;484162;246;1098;-73
2021/10/20 05:40:07;;;;;;;;;;;23.60;38.30;;;;;;484211;246;1147;-73
2021/10/20 05:42:08;;;;;;;;;;;23.50;38.30;;;;;;484226;246;1138;-73
2021/10/20 05:44:11;;;;;;;;;;;23.60;38.10;;;;;;484189;246;971;-73
2021/10/20 05:46:10;;;;;;;;;;;23.60;38.10;;;;;;483898;246;2191;-73
2021/10/20 05:48:12;;;;;;;;;;;23.50;38.20;;;;;;484000;246;1174;-73
2021/10/20 05:50:14;;;;;;;;;;;23.50;38.20;;;;;;484131;246;969;-73
2021/10/20 05:52:14;;;;;;;;;;;23.60;38.30;;;;;;483949;246;1541;-73
2021/10/20 05:54:16;;;;;;;;;;;23.60;38.10;;;;;;484234;246;1153;-73
2021/10/20 05:56:17;;;;;;;;;;;23.70;38.00;;;;;;484191;246;1163;-73
2021/10/20 05:58:19;;;;;;;;;;;23.70;37.90;;;;;;484203;246;1157;-73
2021/10/20 06:00:20;;;;;;;;;;;23.70;37.90;;;;;;484155;246;1041;-72
2021/10/20 06:02:21;;;;;;;;;;;23.60;38.00;;;;;;484076;246;1241;-72
2021/10/20 06:04:23;;;;;;;;;;;23.40;38.30;;;;;;484117;246;973;-72
2021/10/20 06:06:24;;;;;;;;;;;23.40;38.40;;;;;;484114;246;2183;-72
2021/10/20 06:08:25;;;;;;;;;;;23.40;38.40;;;;;;484135;246;1196;-72
2021/10/20 06:10:27;;;;;;;;;;;23.50;38.20;;;;;;483934;246;1047;-72
2021/10/20 06:12:28;;;;;;;;;;;23.60;38.10;;;;;;483886;246;1199;-72
2021/10/20 06:14:29;;;;;;;;;;;23.60;38.00;;;;;;483966;246;1047;-72
2021/10/20 06:16:32;;;;;;;;;;;23.50;38.10;;;;;;483972;246;1148;-73
2021/10/20 06:18:32;;;;;;;;;;;23.60;38.10;;;;;;484054;246;1409;-73
2021/10/20 06:20:34;;;;;;;;;;;23.60;37.90;;;;;;484076;246;1073;-73
2021/10/20 06:22:35;;;;;;;;;;;23.50;38.10;;;;;;484032;246;1259;-72
2021/10/20 06:24:36;;;;;;;;;;;23.60;38.10;;;;;;483927;246;1007;-72
2021/10/20 06:26:38;;;;;;;;;;;23.50;38.10;;;;;;483789;246;2139;-72
2021/10/20 06:28:39;;;;;;;;;;;23.50;38.10;;;;;;483652;246;1180;-73
2021/10/20 06:30:40;;;;;;;;;;;23.60;38.00;;;;;;483730;246;965;-73
2021/10/20 06:32:45;;;;;;;;;;;23.60;38.10;;;;;;483677;246;1176;-73
2021/10/20 06:34:44;;;;;;;;;;;23.50;38.20;;;;;;483558;246;1286;-73
2021/10/20 06:36:45;;;;;;;;;;;23.50;38.10;;;;;;483611;246;1145;-73
2021/10/20 06:38:46;;;;;;;;;;;23.50;38.20;;;;;;483431;246;1025;-73
2021/10/20 06:40:48;;;;;;;;;;;23.60;38.00;;;;;;483424;246;1179;-73
2021/10/20 06:42:50;;;;;;;;;;;23.50;38.20;;;;;;483555;246;1077;-73
2021/10/20 06:44:51;;;;;;;;;;;23.50;38.20;;;;;;483586;246;1087;-72
2021/10/20 06:46:52;;;;;;;;;;;23.30;38.50;;;;;;483595;246;2203;-73
2021/10/20 06:48:54;;;;;;;;;;;23.20;38.90;;;;;;483768;246;1048;-73
2021/10/20 06:50:55;;;;;;;;;;;23.30;38.70;;;;;;483752;246;1209;-73
2021/10/20 06:52:56;;;;;;;;;;;23.30;38.70;;;;;;483671;246;1069;-73
2021/10/20 06:54:57;;;;;;;;;;;23.30;38.70;;;;;;483795;246;1046;-72
2021/10/20 06:56:59;;;;;;;;;;;23.20;38.90;;;;;;483626;246;1211;-72
2021/10/20 06:59:00;;;;;;;;;;;23.10;39.00;;;;;;483681;246;1317;-73
2021/10/20 07:01:02;;;;;;;;;;;23.20;39.00;;;;;;483493;246;1098;-72
2021/10/20 07:03:03;;;;;;;;;;;23.10;39.20;;;;;;483531;246;1272;-73
2021/10/20 07:05:05;;;;;;;;;;;23.20;39.10;;;;;;483732;246;1068;-73
2021/10/20 07:07:10;;;;;;;;;;;23.00;39.40;;;;;;483562;246;2180;-73
2021/10/20 07:09:07;;;;;;;;;;;23.10;39.40;;;;;;483422;246;1424;-73
2021/10/20 07:11:08;;;;;;;;;;;23.10;39.40;;;;;;483295;246;1238;-73
2021/10/20 07:13:10;;;;;;;;;;;23.10;39.50;;;;;;483697;246;1253;-73
2021/10/20 07:15:11;;;;;;;;;;;23.00;39.60;;;;;;483351;246;1027;-73
2021/10/20 07:17:12;;;;;;;;;;;23.00;39.90;;;;;;483300;246;968;-73
2021/10/20 07:19:14;;;;;;;;;;;22.90;40.00;;;;;;483536;246;1139;-73
2021/10/20 07:21:15;;;;;;;;;;;23.00;40.00;;;;;;483439;246;1161;-73
2021/10/20 07:23:16;;;;;;;;;;;23.10;40.00;;;;;;483699;246;1201;-73
2021/10/20 07:25:18;;;;;;;;;;;23.00;40.10;;;;;;483725;246;1103;-74
2021/10/20 07:27:19;;;;;;;;;;;23.00;40.20;;;;;;483603;246;2183;-73
2021/10/20 07:29:20;;;;;;;;;;;23.00;40.20;;;;;;483577;246;1040;-72
2021/10/20 07:31:22;;;;;;;;;;;23.10;40.20;;;;;;483379;246;1201;-73
2021/10/20 07:33:23;;;;;;;;;;;23.00;40.40;;;;;;483479;246;1127;-73
2021/10/20 07:35:25;;;;;;;;;;;23.10;40.50;;;;;;483535;246;984;-73
2021/10/20 07:37:26;;;;;;;;;;;23.00;40.70;;;;;;483348;246;2146;-72
2021/10/20 07:39:27;;;;;;;;;;;23.10;40.70;;;;;;483461;246;1127;-73
2021/10/20 07:41:28;;;;;;;;;;;23.10;40.60;;;;;;483283;246;1208;-73
2021/10/20 07:43:30;;;;;;;;;;;23.10;40.80;;;;;;483338;246;1105;-73
2021/10/20 07:45:31;;;;;;;;;;;23.00;41.10;;;;;;483059;246;1311;-71
2021/10/20 07:47:32;;;;;;;;;;;23.10;41.10;;;;;;483251;246;2180;-73
2021/10/20 07:49:34;;;;;;;;;;;23.10;41.20;;;;;;483621;246;1047;-73
2021/10/20 07:51:35;;;;;;;;;;;23.20;41.10;;;;;;483654;246;1083;-73
2021/10/20 07:53:36;;;;;;;;;;;23.10;41.40;;;;;;483552;246;1159;-73
2021/10/20 07:55:38;;;;;;;;;;;23.00;41.30;;;;;;483472;246;1092;-73
2021/10/20 07:57:39;;;;;;;;;;;23.10;41.30;;;;;;483633;246;1231;-73
2021/10/20 07:59:40;;;;;;;;;;;23.10;41.50;;;;;;483656;246;1054;-73
2021/10/20 08:01:42;;;;;;;;;;;23.00;41.80;;;;;;483582;246;1144;-73
2021/10/20 08:03:43;;;;;;;;;;;23.00;41.90;;;;;;483726;246;1085;-73
2021/10/20 08:05:44;;;;;;;;;;;22.80;42.10;;;;;;483635;246;1103;-73
2021/10/20 08:07:46;;;;;;;;;;;22.70;42.60;;;;;;483626;246;2124;-73
2021/10/20 08:09:48;;;;;;;;;;;22.70;42.60;;;;;;483515;246;1127;-73
2021/10/20 08:11:48;;;;;;;;;;;22.60;42.90;;;;;;483384;246;1398;-73
2021/10/20 08:13:50;;;;;;;;;;;22.70;42.90;;;;;;483452;246;1059;-72
2021/10/20 08:15:51;;;;;;;;;;;22.90;42.90;;;;;;483428;246;1028;-72
2021/10/20 08:17:52;;;;;;;;;;;23.00;42.70;;;;;;483362;246;1384;-72
2021/10/20 08:19:54;;;;;;;;;;;22.90;42.70;;;;;;483500;246;1103;-72
2021/10/20 08:21:55;;;;;;;;;;;22.80;43.20;;;;;;483495;246;1219;-72
2021/10/20 08:23:56;;;;;;;;;;;22.80;43.20;;;;;;483379;246;1202;-73
2021/10/20 08:25:58;;;;;;;;;;;22.80;43.30;;;;;;483200;246;1198;-73
2021/10/20 08:27:59;;;;;;;;;;;22.70;43.60;;;;;;483439;246;2194;-72
2021/10/20 08:30:00;;;;;;;;;;;22.70;43.90;;;;;;483531;246;1025;-73
2021/10/20 08:32:03;;;;;;;;;;;22.70;43.80;;;;;;483320;246;1236;-72
2021/10/20 08:34:04;;;;;;;;;;;22.60;44.00;;;;;;483187;246;1789;-72
2021/10/20 08:36:05;;;;;;;;;;;22.70;44.00;;;;;;483083;246;1438;-72
2021/10/20 08:38:07;;;;;;;;;;;22.70;44.20;;;;;;483222;246;1034;-72
2021/10/20 08:40:08;;;;;;;;;;;22.60;44.40;;;;;;483515;246;1055;-72
2021/10/20 08:42:09;;;;;;;;;;;22.60;44.70;;;;;;483562;246;1107;-72
2021/10/20 08:44:10;;;;;;;;;;;22.60;44.90;;;;;;483464;246;1228;-72
2021/10/20 08:46:12;;;;;;;;;;;22.60;44.80;;;;;;483491;246;1108;-72
2021/10/20 08:48:13;;;;;;;;;;;22.90;44.30;;;;;;483451;246;2192;-72
2021/10/20 08:50:14;;;;;;;;;;;22.70;44.40;;;;;;483436;246;1056;-73
2021/10/20 08:52:16;;;;;;;;;;;23.00;44.20;;;;;;483466;246;1088;-72
2021/10/20 08:54:17;;;;;;;;;;;22.70;44.50;;;;;;483553;246;1254;-72
2021/10/20 08:56:18;;;;;;;;;;;23.00;44.30;;;;;;483425;246;1060;-73
2021/10/20 08:58:20;;;;;;;;;;;22.90;44.40;;;;;;483523;246;1126;-73
2021/10/20 09:00:21;;;;;;;;;;;22.60;44.90;;;;;;483373;246;1102;-73
2021/10/20 09:02:22;;;;;;;;;;;22.60;45.00;;;;;;482664;246;1178;-72
2021/10/20 09:04:24;;;;;;;;;;;22.90;44.70;;;;;;483537;246;1076;-73
2021/10/20 09:06:25;;;;;;;;;;;22.70;44.60;;;;;;483536;246;1165;-73
2021/10/20 09:08:26;;;;;;;;;;;22.90;44.40;;;;;;483565;246;2200;-73
2021/10/20 09:10:28;;;;;;;;;;;22.90;44.30;;;;;;483542;246;981;-72
2021/10/20 09:12:31;;;;;;;;;;;22.90;44.20;;;;;;483539;246;1136;-73
2021/10/20 09:14:30;;;;;;;;;;;23.10;43.80;;;;;;483271;246;1794;-72
2021/10/20 09:16:32;;;;;;;;;;;23.00;44.00;;;;;;483140;246;1213;-73
2021/10/20 09:18:37;;;;;;;;;;;23.20;43.80;;;;;;483181;246;1065;-73
2021/10/20 09:20:34;;;;;;;;;;;23.20;43.50;;;;;;483148;246;1319;-72
2021/10/20 09:22:36;;;;;;;;;;;23.20;43.30;;;;;;483375;246;1200;-72
2021/10/20 09:24:37;;;;;;;;;;;23.20;43.30;;;;;;483603;246;1214;-72
2021/10/20 09:26:38;;;;;;;;;;;23.20;43.30;;;;;;483559;246;1336;-73
2021/10/20 09:28:40;;;;;;;;;;;23.10;43.10;;;;;;483563;246;2232;-73
2021/10/20 09:30:41;;;;;;;;;;;23.00;43.40;;;;;;483466;246;1169;-73
2021/10/20 09:32:42;;;;;;;;;;;22.80;43.50;;;;;;483571;246;1399;-73
2021/10/20 09:34:44;;;;;;;;;;;23.10;43.10;;;;;;483570;246;1117;-73
2021/10/20 09:36:45;;;;;;;;;;;23.20;42.80;;;;;;483557;246;1257;-73
2021/10/20 09:38:48;;;;;;;;;;;23.10;43.00;;;;;;483542;246;1245;-72
2021/10/20 09:40:48;;;;;;;;;;;23.00;43.20;;;;;;483188;246;1247;-73
2021/10/20 09:42:49;;;;;;;;;;;23.00;43.10;;;;;;483382;246;1180;-72
2021/10/20 09:44:50;;;;;;;;;;;22.90;43.20;;;;;;483647;246;1053;-72
2021/10/20 09:46:52;;;;;;;;;;;23.10;43.00;;;;;;483476;246;1321;-72
2021/10/20 09:48:53;;;;;;;;;;;23.00;43.00;;;;;;483509;246;2116;-72
2021/10/20 09:50:54;;;;;;;;;;;23.00;43.00;;;;;;483495;246;1207;-72
2021/10/20 09:52:56;;;;;;;;;;;22.90;43.00;;;;;;482754;246;1467;-73
2021/10/20 09:54:57;;;;;;;;;;;23.00;42.80;;;;;;483552;246;1135;-72
2021/10/20 09:56:58;;;;;;;;;;;23.10;42.80;;;;;;483425;246;1166;-72
2021/10/20 09:59:00;;;;;;;;;;;23.10;42.60;;;;;;483375;246;1200;-72
2021/10/20 10:01:01;;;;;;;;;;;23.10;42.40;;;;;;483356;246;1123;-72
2021/10/20 10:03:03;;;;;;;;;;;23.20;42.30;;;;;;483449;245;1224;-73
2021/10/20 10:05:04;;;;;;;;;;;23.10;42.30;;;;;;483403;246;1029;-73
2021/10/20 10:07:05;;;;;;;;;;;23.10;42.10;;;;;;483414;246;1244;-72
2021/10/20 10:09:07;;;;;;;;;;;23.30;41.90;;;;;;483449;246;2171;-72
2021/10/20 10:11:08;;;;;;;;;;;22.90;42.00;;;;;;483319;246;1164;-72
2021/10/20 10:13:09;;;;;;;;;;;23.10;41.90;;;;;;483264;246;1124;-73
2021/10/20 10:15:10;;;;;;;;;;;23.00;42.10;;;;;;483413;246;1075;-72
2021/10/20 10:17:13;;;;;;;;;;;22.90;42.00;;;;;;483237;246;1141;-72
2021/10/20 10:19:13;;;;;;;;;;;23.00;41.90;;;;;;483351;246;1374;-72
2021/10/20 10:21:14;;;;;;;;;;;23.10;41.60;;;;;;483612;246;1175;-72
2021/10/20 10:23:16;;;;;;;;;;;23.10;41.70;;;;;;483630;246;1216;-72
2021/10/20 10:25:17;;;;;;;;;;;23.00;41.70;;;;;;483338;246;1066;-72
2021/10/20 10:27:18;;;;;;;;;;;23.20;41.50;;;;;;483245;246;1092;-72
2021/10/20 10:29:20;;;;;;;;;;;23.00;41.50;;;;;;483488;246;2184;-72
2021/10/20 10:31:21;;;;;;;;;;;23.20;41.40;;;;;;483446;246;1075;-73
2021/10/20 10:33:22;;;;;;;;;;;22.90;41.70;;;;;;483556;246;990;-73
2021/10/20 10:35:24;;;;;;;;;;;23.00;41.60;;;;;;483338;246;1098;-73
2021/10/20 10:37:25;;;;;;;;;;;22.80;41.80;;;;;;483119;246;987;-73
2021/10/20 10:39:26;;;;;;;;;;;23.10;41.50;;;;;;483445;246;992;-73
2021/10/20 10:41:28;;;;;;;;;;;23.00;41.50;;;;;;483465;246;1062;-72
2021/10/20 10:43:29;;;;;;;;;;;23.20;41.40;;;;;;483565;246;1262;-72
2021/10/20 10:45:31;;;;;;;;;;;23.00;41.40;;;;;;483353;246;963;-72
2021/10/20 10:47:33;;;;;;;;;;;22.80;41.60;;;;;;483265;246;1366;-72
2021/10/20 10:49:34;;;;;;;;;;;22.70;41.80;;;;;;483404;246;2124;-73
2021/10/20 10:51:37;;;;;;;;;;;22.70;41.90;;;;;;483443;246;1060;-73
2021/10/20 10:53:38;;;;;;;;;;;22.90;41.60;;;;;;483387;246;1328;-73
2021/10/20 10:55:39;;;;;;;;;;;22.80;41.50;;;;;;483728;246;1394;-72
2021/10/20 10:57:40;;;;;;;;;;;22.90;41.50;;;;;;484161;246;1153;-72
2021/10/20 10:59:41;;;;;;;;;;;22.70;41.70;;;;;;483826;246;1173;-72
2021/10/20 11:01:43;;;;;;;;;;;22.90;41.60;;;;;;483305;246;1154;-72
2021/10/20 11:03:44;;;;;;;;;;;22.90;41.40;;;;;;483292;246;1027;-72
2021/10/20 11:05:45;;;;;;;;;;;23.20;41.10;;;;;;483306;246;1103;-72
2021/10/20 11:07:47;;;;;;;;;;;22.80;41.30;;;;;;483230;246;2198;-73
2021/10/20 11:09:48;;;;;;;;;;;22.90;41.40;;;;;;483315;246;1213;-73
2021/10/20 11:11:49;;;;;;;;;;;22.60;41.80;;;;;;483400;246;1068;-73
2021/10/20 11:13:51;;;;;;;;;;;22.80;41.70;;;;;;483457;246;1184;-73
2021/10/20 11:15:52;;;;;;;;;;;22.80;41.50;;;;;;483344;246;1074;-72
2021/10/20 11:17:53;;;;;;;;;;;22.70;41.90;;;;;;483274;246;1083;-72
2021/10/20 11:19:56;;;;;;;;;;;22.90;41.50;;;;;;483190;246;1186;-73
2021/10/20 11:21:57;;;;;;;;;;;22.80;41.60;;;;;;483175;246;1389;-72
2021/10/20 11:23:57;;;;;;;;;;;22.80;41.60;;;;;;483292;246;1308;-72
2021/10/20 11:25:59;;;;;;;;;;;22.90;41.70;;;;;;483360;246;1105;-72
2021/10/20 11:28:00;;;;;;;;;;;23.00;41.40;;;;;;483309;246;2187;-72
2021/10/20 11:30:01;;;;;;;;;;;22.90;41.50;;;;;;483429;246;1220;-72
2021/10/20 11:32:03;;;;;;;;;;;23.00;41.30;;;;;;483191;246;1043;-72
2021/10/20 11:34:04;;;;;;;;;;;23.00;41.40;;;;;;483357;246;1083;-72
2021/10/20 11:36:06;;;;;;;;;;;22.90;41.60;;;;;;483537;246;1055;-72
2021/10/20 11:38:07;;;;;;;;;;;22.90;41.50;;;;;;483589;246;1098;-72
2021/10/20 11:40:08;;;;;;;;;;;22.90;41.50;;;;;;483408;246;1043;-72
2021/10/20 11:42:12;;;;;;;;;;;23.00;41.40;;;;;;483420;246;1185;-73
2021/10/20 11:44:11;;;;;;;;;;;23.20;41.30;;;;;;483493;246;1339;-72
2021/10/20 11:46:12;;;;;;;;;;;22.90;41.40;;;;;;483726;246;1219;-72
2021/10/20 11:48:14;;;;;;;;;;;22.70;41.70;;;;;;484259;246;2179;-73
2021/10/20 11:50:15;;;;;;;;;;;23.00;41.40;;;;;;484143;246;846;-73
2021/10/20 11:52:16;;;;;;;;;;;22.80;41.80;;;;;;483752;246;1202;-73
2021/10/20 11:54:18;;;;;;;;;;;23.00;41.50;;;;;;483770;246;784;-73
2021/10/20 11:56:19;;;;;;;;;;;23.00;41.30;;;;;;483755;246;1425;-73